Tiempo atmosférico en la estación meteorológica de Amorebieta--Etxano, Bizkaia (100 m.)



Fecha
DESCASC
Temp. máxima en grados centígrados (hora)
DESCASC
Temp. mínima en grados centígrados (hora)
DESCASC
Temp. media en grados centígrados
DESCASC
Racha de viento máxima en m/sg (hora)
DESCASC
Velocidad máxima media en intervalos de 10 minutos(hora)
DESCASC
Precipitaciones diarias en mm
DESCASC
Precipitaciones de 00:00 a 06:00 en mm
DESCASC
Precipitaciones de 06:00 a 12:00 en mm
DESCASC
Precipitaciones de 12:00 a 18:00 en mm
DESCASC
Precipitaciones de 18:00 a 24:00 en mm
DESCASC
21-02-2019 21.6 (16:00) 4.2 (05:20) 12.9 8.33 (13:40) 4.17 (13:20) 0 0 0 0 0
20-02-2019 19 (14:10) 2.9 (05:50) 11 6.39 (12:40) 3.89 (16:20) 0 0 0 0 0
19-02-2019 13.5 (17:10) 4.9 (23:59) 9.2 8.33 (01:10) 5.56 (01:10) 0.4 0.2 0.2 0 0
18-02-2019 18.6 (14:50) 9.5 (07:50) 14.1 11.67 (00:10) 6.39 (00:20) 0 0 0 0 0
17-02-2019 21.7 (16:30) 12.7 (00:00) 17.2 14.44 (06:30) 7.5 (04:30) 0 0 0 0 0
16-02-2019 20 (14:10) 1.6 (00:00) 10.8 13.89 (19:10) 6.94 (11:50) 0 0 0 0 0
15-02-2019 21 (16:00) 5.8 (00:00) 13.4 6.67 (12:30) 4.17 (12:30) 0 0 0 0 0
14-02-2019 19.8 (16:20) 4.1 (00:00) 11.9 13.61 (07:20) 6.39 (07:20) 0 0 0 0 0
13-02-2019 19 (16:10) 1.1 (00:00) 10.1 5.28 (13:50) 2.5 (14:10) 0 0 0 0 0
12-02-2019 13.7 (15:10) 3.7 (00:00) 8.7 6.39 (16:10) 4.44 (16:10) 0 0 0 0 0
11-02-2019 10.6 (16:30) 6.2 (00:00) 8.4 6.67 (03:30) 3.61 (03:30) 6.4 0.8 1.4 4.2 0
10-02-2019 14.8 (00:00) 7.1 (00:00) 11 17.5 (10:30) 9.72 (10:30) 4.8 0 2.6 2.2 0
09-02-2019 17.3 (15:30) 3 (00:00) 10.1 10 (23:30) 4.72 (17:00) 0 0 0 0 0
08-02-2019 17.8 (15:10) 1.7 (00:00) 9.7 8.61 (17:20) 6.11 (17:20) 0 0 0 0 0
07-02-2019 10.9 (17:00) 4.1 (00:00) 7.5 8.06 (14:20) 4.17 (14:20) 0.4 0 0.4 0 0
06-02-2019 18.9 (15:10) 4.2 (00:00) 11.5 4.72 (19:00) 3.06 (18:50) 0.2 0 0.2 0 0
05-02-2019 15.7 (15:00) 6.8 (00:00) 11.3 4.72 (13:50) 2.78 (17:10) 0.8 0.8 0 0 0
04-02-2019 10.7 (15:50) 0.2 (00:00) 5.4 4.17 (05:20) 1.94 (03:20) 0.4 0 0 0 0.4
03-02-2019 8.1 (16:00) 1.5 (00:00) 4.8 9.44 (13:30) 6.39 (14:00) 7.2 1.4 3.6 2 0.2
02-02-2019 9 (13:30) 3.1 (00:00) 6 19.17 (10:20) 11.94 (10:20) 32.2 11.2 12 2.6 6.4
01-02-2019 11.7 (13:00) 4.8 (00:00) 8.3 15.56 (08:40) 9.17 (08:40) 3.8 0 0 2.8 1
31-01-2019 17.5 (15:40) 7.2 (00:00) 12.3 11.39 (18:10) 7.22 (18:10) 47.4 10.6 7.2 5.2 24.4
30-01-2019 11.4 (15:50) 5.4 (00:00) 8.4 11.94 (01:40) 8.33 (01:40) 19.8 4 5.8 0 10
29-01-2019 10.1 (16:30) 5.8 (00:00) 8 19.17 (19:50) 10.28 (21:40) 17.8 3.8 1.4 7.2 5.4
28-01-2019 10.6 (14:10) 6.8 (00:00) 8.7 17.5 (07:50) 10.28 (13:10) 17.2 1.6 7.4 4 4.2
27-01-2019 9.4 (12:30) 4 (00:00) 6.7 23.89 (12:40) 11.39 (12:40) 16.8 1.4 5.2 4.4 5.8
26-01-2019 14.7 (16:00) 4.6 (00:00) 9.6 5.83 (17:50) 3.89 (17:50) 2.2 2.2 0 0 0
25-01-2019 11.2 (14:50) 7 (00:00) 9.1 11.39 (15:50) 6.94 (03:40) 15.6 3 2.6 1 9
24-01-2019 7.8 (00:00) 6.5 (00:00) 7.2 9.17 (02:30) 4.44 (01:00) 32.6 10.8 13.2 6.6 2

Gráficas

Temp. máximas Temp. mínimas Temp. medias Precipitaciones Rachas de viento máximas Velocidades máximas media en intervalos de 10 minutos

Datos horarios

Fecha y hora oficial Temperatura (ºC) Velocidad del viento (km/h) Dirección del viento Racha (km/h) Dirección de racha Precipitación (mm) Presión (hPa) Tendencia (hPa) Humedad (%)
2019-02-22 23:00:00 8.2 4 Sudeste 9 Sudeste 0 -- -- 73
2019-02-22 22:00:00 10.1 3 Sudeste 12 Sudeste 0 -- -- 66
2019-02-22 21:00:00 11.7 3 Sudeste 10 Sudeste 0 -- -- 61
2019-02-22 20:00:00 13.8 6 Sudeste 10 Sudeste 0 -- -- 53
2019-02-22 19:00:00 15.8 3 Sudeste 11 Este 0 -- -- 52
2019-02-22 18:00:00 20.4 4 Sur 8 Sur 0 -- -- 38
2019-02-22 17:00:00 23.6 4 Sudeste 15 Este 0 -- -- 31
2019-02-22 16:00:00 23.3 5 Sudeste 17 Este 0 -- -- 25
2019-02-22 15:00:00 22.3 12 Este 19 Este 0 -- -- 26
2019-02-22 14:00:00 22 7 Sudeste 21 Este 0 -- -- 28
2019-02-22 13:00:00 20.3 11 Este 23 Este 0 -- -- 36
2019-02-22 12:00:00 17 2 Este 8 Este 0 -- -- 48
2019-02-22 11:00:00 11.9 3 Norte 5 Norte 0 -- -- 72
2019-02-22 10:00:00 7.5 2 Sudeste 4 Nordeste 0 -- -- 90
2019-02-22 09:00:00 4.6 2 Nordeste 6 Este 0 -- -- 94
2019-02-22 08:00:00 4.1 0 Calma 6 Noroeste 0 -- -- 95
2019-02-22 07:00:00 4 3 Noroeste 6 Norte 0 -- -- 93
2019-02-22 06:00:00 4.4 0 Calma 7 Sur 0 -- -- 93
2019-02-22 05:00:00 4.9 0 Calma 5 Sudoeste 0 -- -- 93
2019-02-22 04:00:00 5.3 0 Calma 7 Norte 0 -- -- 92
2019-02-22 03:00:00 5.4 4 Norte 7 Este 0 -- -- 91
2019-02-22 02:00:00 6.1 0 Calma 4 Este 0 -- -- 90
2019-02-22 01:00:00 6.7 0 Calma 4 Noroeste 0 -- -- 87
2019-02-22 00:00:00 7.8 0 Calma 2 Norte 0 -- -- 83
2019-02-21 23:00:00 8.8 0 Calma 2 Sudoeste 0 -- -- 80
2019-02-21 22:00:00 10.2 0 Calma 3 Este 0 -- -- 73
2019-02-21 21:00:00 11.7 0 Calma 9 Sudeste 0 -- -- 67
2019-02-21 20:00:00 14.3 5 Sudeste 15 Sudeste 0 -- -- 57
2019-02-21 19:00:00 16.1 6 Sudeste 9 Sudeste 0 -- -- 50
2019-02-21 18:00:00 19.2 3 Sur 17 Sur 0 -- -- 43
2019-02-21 17:00:00 21.3 4 Sudeste 23 Sudeste 0 -- -- 35
2019-02-21 16:00:00 21.6 9 Sur 26 Sur 0 -- -- 34
2019-02-21 15:00:00 21.1 8 Sur 21 Sudoeste 0 -- -- 37
2019-02-21 14:00:00 20.2 8 Sudoeste 30 Sur 0 -- -- 43
2019-02-21 13:00:00 19.5 14 Sur 27 Sudoeste 0 -- -- 42
2019-02-21 12:00:00 17.6 9 Este 18 Este 0 -- -- 49
2019-02-21 11:00:00 14.8 9 Este 21 Este 0 -- -- 55
2019-02-21 10:00:00 9.7 4 Sudeste 15 Este 0 -- -- 79
2019-02-21 09:00:00 5.3 0 Calma 7 Sur 0 -- -- 93
2019-02-21 08:00:00 4.8 4 Noroeste 6 Sudoeste 0 -- -- 92
2019-02-21 07:00:00 4.7 2 Norte 9 Norte 0 -- -- 93
2019-02-21 06:00:00 4.7 3 Noroeste 7 Sur 0 -- -- 94
2019-02-21 05:00:00 4.4 3 Oeste 8 Sudeste 0 -- -- 94
2019-02-21 04:00:00 4.9 3 Norte 5 Sudoeste 0 -- -- 96
2019-02-21 03:00:00 5 2 Norte 5 Noroeste 0 -- -- 96
2019-02-21 02:00:00 5.5 0 Calma 7 Noroeste 0 -- -- 96
2019-02-21 01:00:00 5.6 4 Norte 9 Sudeste 0 -- -- 93
2019-02-21 00:00:00 6.2 2 Sudeste 5 Este 0 -- -- 91
2019-02-20 23:00:00 7.4 0 Calma 5 Sudeste 0 -- -- 89
2019-02-20 22:00:00 8.7 2 Sudeste 9 Este 0 -- -- 85
2019-02-20 21:00:00 10.4 2 Sudoeste 13 Noroeste 0 -- -- 81
2019-02-20 20:00:00 12.3 8 Noroeste 19 Noroeste 0 -- -- 77
2019-02-20 19:00:00 13.8 4 Sudeste 7 Sur 0 -- -- 65
2019-02-20 18:00:00 17.5 2 Sur 15 Oeste 0 -- -- 55
2019-02-20 17:00:00 18.8 9 Sudoeste 19 Oeste 0 -- -- 50
2019-02-20 16:00:00 18.8 12 Oeste 20 Oeste 0 -- -- 49
2019-02-20 15:00:00 18.3 3 Este 18 Sur 0 -- -- 47
2019-02-20 14:00:00 18.7 9 Sur 22 Este 0 -- -- 45
2019-02-20 13:00:00 17.2 8 Sudeste 23 Este 0 -- -- 50
2019-02-20 12:00:00 15.4 8 Sudeste 21 Este 0 -- -- 57
2019-02-20 11:00:00 12.7 8 Sudeste 18 Sudeste 0 -- -- 70
2019-02-20 10:00:00 7.9 2 Norte 8 Nordeste 0 -- -- 94
2019-02-20 09:00:00 4.3 2 Noroeste 6 Noroeste 0 -- -- 99
2019-02-20 08:00:00 3.6 3 Noroeste 6 Noroeste 0 -- -- 99
2019-02-20 07:00:00 3 0 Calma 5 Noroeste 0 -- -- 100
2019-02-20 06:00:00 3 0 Calma -- -- 0 -- -- 100
2019-02-20 05:00:00 3.4 0 Calma 6 Este 0 -- -- 99
2019-02-20 04:00:00 3.6 2 Sudeste 6 Noroeste 0 -- -- 99
2019-02-20 03:00:00 3.7 2 Noroeste 7 Norte 0 -- -- 99
2019-02-20 02:00:00 4.4 2 Norte 5 Sudeste 0 -- -- 98
2019-02-20 01:00:00 4.8 2 Noroeste 4 Noroeste 0 -- -- 98
2019-02-20 00:00:00 4.9 0 Calma 5 Sudeste 0 -- -- 97
2019-02-19 23:00:00 5.6 0 Calma 6 Este 0 -- -- 96
2019-02-19 22:00:00 6.4 0 Calma 8 Sudeste 0 -- -- 95
2019-02-19 21:00:00 7.5 3 Sudeste 6 Sudeste 0 -- -- 93
2019-02-19 20:00:00 8.6 3 Sudeste 6 Este 0 -- -- 88
2019-02-19 19:00:00 10.3 3 Sudoeste 5 Sudeste 0 -- -- 83
2019-02-19 18:00:00 13 0 Calma 8 Sur 0 -- -- 76
2019-02-19 17:00:00 13.3 6 Sur 11 Sur 0 -- -- 74
2019-02-19 16:00:00 12.8 5 Nordeste 10 Noroeste 0 -- -- 69
2019-02-19 15:00:00 11.6 6 Noroeste 13 Norte 0 -- -- 77
2019-02-19 14:00:00 10.9 8 Norte 14 Norte 0 -- -- 83
2019-02-19 13:00:00 9.9 5 Noroeste 9 Noroeste 0 -- -- 88
2019-02-19 12:00:00 9.3 7 Norte 10 Norte 0 -- -- 92
2019-02-19 11:00:00 8.8 4 Noroeste 10 Oeste 0 -- -- 95
2019-02-19 10:00:00 8.1 4 Noroeste 7 Noroeste 0 -- -- 99
2019-02-19 09:00:00 7.7 5 Noroeste 9 Oeste 0 -- -- 98
2019-02-19 08:00:00 7.7 6 Oeste 11 Noroeste 0.2 -- -- 98
2019-02-19 07:00:00 7.8 7 Noroeste 18 Noroeste 0 -- -- 98
2019-02-19 06:00:00 8.1 4 Oeste 8 Oeste 0.2 -- -- 97
2019-02-19 05:00:00 8.4 4 Noroeste 13 Noroeste 0 -- -- 94
2019-02-19 04:00:00 8.5 8 Noroeste 17 Noroeste 0 -- -- 93
2019-02-19 03:00:00 8.5 11 Noroeste 23 Noroeste 0 -- -- 94
2019-02-19 02:00:00 8.7 14 Noroeste 30 Noroeste 0 -- -- 93
2019-02-19 01:00:00 9.6 13 Noroeste 21 Noroeste 0 -- -- 91
2019-02-19 00:00:00 9.8 8 Noroeste 18 Norte 0 -- -- 91
2019-02-18 23:00:00 10 3 Sudeste 4 Este 0 -- -- 89
2019-02-18 22:00:00 10.3 0 Calma 5 Norte 0 -- -- 88
2019-02-18 21:00:00 10.6 0 Calma 12 Oeste 0 -- -- 88
2019-02-18 20:00:00 10.8 10 Oeste 19 Noroeste 0 -- -- 88
2019-02-18 19:00:00 11.4 8 Oeste 17 Norte 0 -- -- 75
2019-02-18 18:00:00 12.8 9 Noroeste 18 Norte 0 -- -- 60
2019-02-18 17:00:00 14 8 Noroeste 26 Norte 0 -- -- 56
2019-02-18 16:00:00 15.5 13 Norte 21 Norte 0 -- -- 51
2019-02-18 15:00:00 18.4 5 Norte 14 Oeste 0 -- -- 36
2019-02-18 14:00:00 17.9 5 Oeste 12 Nordeste 0 -- -- 37
2019-02-18 13:00:00 17.5 5 Este 16 Este 0 -- -- 35
2019-02-18 12:00:00 16 4 Sur 17 Este 0 -- -- 38
2019-02-18 11:00:00 14.3 8 Sudeste 27 Sudeste 0 -- -- 44
2019-02-18 10:00:00 12.2 14 Sur 35 Sudeste 0 -- -- 51
2019-02-18 09:00:00 11.7 10 Sudeste 30 Sudeste 0 -- -- 48
2019-02-18 08:00:00 9.7 6 Sudeste 19 Sudeste 0 -- -- 53
2019-02-18 07:00:00 11.1 8 Sudeste 24 Este 0 -- -- 49
2019-02-18 06:00:00 10.8 4 Sudeste 19 Este 0 -- -- 51
2019-02-18 05:00:00 12.2 10 Este 19 Este 0 -- -- 46
2019-02-18 04:00:00 13.3 9 Sudeste 31 Sur 0 -- -- 41
2019-02-18 03:00:00 13.4 12 Sur 21 Sur 0 -- -- 39
2019-02-18 02:00:00 14.2 12 Sur 31 Sudeste 0 -- -- 36
2019-02-18 01:00:00 15.1 13 Sudeste 42 Sudeste 0 -- -- 34
2019-02-18 00:00:00 15.7 21 Sudeste 48 Sudeste 0 -- -- 33
2019-02-17 23:00:00 15.7 20 Sudeste 46 Sudeste 0 -- -- 29
2019-02-17 22:00:00 15.7 19 Sudeste 49 Sudeste 0 -- -- 28
2019-02-17 21:00:00 16.3 22 Sudeste 44 Sudeste 0 -- -- 27
2019-02-17 20:00:00 14.5 5 Este 16 Sudeste 0 -- -- 29
2019-02-17 19:00:00 16.6 8 Sudeste 28 Sudeste 0 -- -- 26
2019-02-17 18:00:00 18.7 11 Sudeste 24 Sur 0 -- -- 22
2019-02-17 17:00:00 20.9 13 Sudeste 25 Sur 0 -- -- 19
2019-02-17 16:00:00 21.6 9 Sudeste 35 Sudeste 0 -- -- 16
2019-02-17 15:00:00 20.9 13 Sudeste 27 Sudeste 0 -- -- 17
2019-02-17 14:00:00 20.3 10 Sur 22 Sudeste 0 -- -- 22
2019-02-17 13:00:00 19.3 8 Sudeste 33 Sudeste 0 -- -- 18
2019-02-17 12:00:00 17.4 12 Este 34 Este 0 -- -- 20
2019-02-17 11:00:00 15.6 13 Este 36 Sudeste 0 -- -- 22
2019-02-17 10:00:00 13.8 16 Este 40 Este 0 -- -- 23
2019-02-17 09:00:00 12.9 15 Este 43 Este 0 -- -- 25
2019-02-17 08:00:00 13 19 Este 48 Este 0 -- -- 25
2019-02-17 07:00:00 13.1 18 Sudeste 52 Sudeste 0 -- -- 26
2019-02-17 06:00:00 13 22 Sudeste 46 Sudeste 0 -- -- 29
2019-02-17 05:00:00 14 22 Este 47 Este 0 -- -- 28
2019-02-17 04:00:00 14.7 13 Sudeste 32 Este 0 -- -- 28
2019-02-17 03:00:00 14.7 14 Este 28 Este 0 -- -- 29
2019-02-17 02:00:00 14.4 5 Sur 27 Sudeste 0 -- -- 32
2019-02-17 01:00:00 15.5 11 Sudeste 31 Este 0 -- -- 30
2019-02-17 00:00:00 14.9 15 Este 46 Sudeste 0 -- -- 33
2019-02-16 23:00:00 15.7 15 Sudeste 44 Este 0 -- -- 33
2019-02-16 22:00:00 15.6 13 Sudeste 38 Sudeste 0 -- -- 33
2019-02-16 21:00:00 15.4 13 Este 35 Sudeste 0 -- -- 34
2019-02-16 20:00:00 15.7 13 Sudeste 50 Sudeste 0 -- -- 35
2019-02-16 19:00:00 16.4 18 Sudeste 40 Sudeste 0 -- -- 36
2019-02-16 18:00:00 17.6 17 Sudeste 41 Sudeste 0 -- -- 37
2019-02-16 17:00:00 19 18 Sudeste 38 Sudeste 0 -- -- 34
2019-02-16 16:00:00 19.8 12 Sudeste 38 Sudeste 0 -- -- 35
2019-02-16 15:00:00 19.8 17 Sudeste 44 Sudeste 0 -- -- 37
2019-02-16 14:00:00 19.9 18 Sudeste 41 Sudeste 0 -- -- 37
2019-02-16 13:00:00 19.4 15 Sudeste 41 Sur 0 -- -- 39
2019-02-16 12:00:00 17.2 24 Sudeste 46 Sudeste 0 -- -- 43
2019-02-16 11:00:00 12.5 5 Oeste 22 Sur 0 -- -- 59
2019-02-16 10:00:00 5.4 5 Norte 9 Noroeste 0 -- -- 87
2019-02-16 09:00:00 1.8 3 Norte 5 Noroeste 0 -- -- 95
2019-02-16 08:00:00 1.6 0 Calma 6 Sudeste 0 -- -- 94
2019-02-16 07:00:00 1.8 0 Calma 5 Sur 0 -- -- 94
2019-02-16 06:00:00 2.1 0 Calma 3 Sur 0 -- -- 92
2019-02-16 05:00:00 2.3 0 Calma 3 Norte 0 -- -- 91
2019-02-16 04:00:00 2.9 0 Calma 4 Sur 0 -- -- 88
2019-02-16 03:00:00 3.4 0 Calma 4 Sudoeste 0 -- -- 87
2019-02-16 02:00:00 4.1 0 Calma 3 Norte 0 -- -- 85
2019-02-16 01:00:00 4.6 0 Calma 4 Sur 0 -- -- 83
2019-02-16 00:00:00 5.8 0 Calma 4 Sudeste 0 -- -- 76
2019-02-15 23:00:00 7 2 Este 5 Sudeste 0 -- -- 73
2019-02-15 22:00:00 8 3 Este 6 Este 0 -- -- 72
2019-02-15 21:00:00 10 0 Calma 4 Oeste 0 -- -- 65
2019-02-15 20:00:00 11.6 3 Norte 8 Sudeste 0 -- -- 62
2019-02-15 19:00:00 13.7 3 Sudeste 10 Este 0 -- -- 58
2019-02-15 18:00:00 17.9 3 Sudeste 11 Sudeste 0 -- -- 42
2019-02-15 17:00:00 20.4 8 Sudeste 24 Este 0 -- -- 36
2019-02-15 16:00:00 21 8 Sudeste 19 Este 0 -- -- 32
2019-02-15 15:00:00 20.4 7 Este 17 Sudeste 0 -- -- 34
2019-02-15 14:00:00 19.5 7 Este 19 Nordeste 0 -- -- 36
2019-02-15 13:00:00 18.4 11 Este 24 Este 0 -- -- 39
2019-02-15 12:00:00 17.2 6 Sudeste 20 Este 0 -- -- 41
2019-02-15 11:00:00 13.4 2 Sur 6 Noroeste 0 -- -- 55
2019-02-15 10:00:00 9.5 3 Norte 7 Norte 0 -- -- 65
2019-02-15 09:00:00 6.6 3 Noroeste 9 Este 0 -- -- 73
2019-02-15 08:00:00 6.7 3 Noroeste 9 Noroeste 0 -- -- 73
2019-02-15 07:00:00 7.9 6 Noroeste 13 Noroeste 0 -- -- 67
2019-02-15 06:00:00 6.4 4 Sur 8 Sudeste 0 -- -- 74
2019-02-15 05:00:00 6.7 0 Calma 8 Este 0 -- -- 73
2019-02-15 04:00:00 8 3 Oeste 8 Noroeste 0 -- -- 67
2019-02-15 03:00:00 8.1 2 Sudoeste 11 Noroeste 0 -- -- 66
2019-02-15 02:00:00 9.9 5 Noroeste 14 Oeste 0 -- -- 58
2019-02-15 01:00:00 11 4 Noroeste 22 Este 0 -- -- 54
2019-02-15 00:00:00 10.8 4 Sur 18 Este 0 -- -- 51
2019-02-14 23:00:00 12.3 7 Sudeste 26 Sudeste 0 -- -- 46
2019-02-14 22:00:00 13.3 14 Sudeste 31 Sudeste 0 -- -- 42
2019-02-14 21:00:00 11.8 3 Sudoeste 18 Este 0 -- -- 49
2019-02-14 20:00:00 12.4 5 Sur 21 Sudeste 0 -- -- 46
2019-02-14 19:00:00 12.6 3 Sudoeste 12 Sudeste 0 -- -- 49
2019-02-14 18:00:00 16.5 5 Sur 16 Sudeste 0 -- -- 42
2019-02-14 17:00:00 19.2 6 Sudeste 23 Sudeste 0 -- -- 32
2019-02-14 16:00:00 19.5 8 Sudeste 31 Este 0 -- -- 32
2019-02-14 15:00:00 18.8 13 Sudeste 42 Sudeste 0 -- -- 31
2019-02-14 14:00:00 18.3 14 Sudeste 42 Sudeste 0 -- -- 32
2019-02-14 13:00:00 18 18 Sudeste 44 Sur 0 -- -- 34
2019-02-14 12:00:00 17 19 Sudeste 42 Sudeste 0 -- -- 37
2019-02-14 11:00:00 15.3 21 Sudeste 45 Sudeste 0 -- -- 40
2019-02-14 10:00:00 13.9 23 Sudeste 49 Sudeste 0 -- -- 45
2019-02-14 09:00:00 13.2 18 Sudeste 46 Este 0 -- -- 48
2019-02-14 08:00:00 13.2 21 Sudeste 49 Sudeste 0 -- -- 49
2019-02-14 07:00:00 13.3 17 Sudeste 47 Sudeste 0 -- -- 49
2019-02-14 06:00:00 12.2 12 Sudeste 35 Sudeste 0 -- -- 55
2019-02-14 05:00:00 8.3 5 Sur 16 Sur 0 -- -- 73
2019-02-14 04:00:00 4.5 2 Norte 8 Noroeste 0 -- -- 93
2019-02-14 03:00:00 4.1 3 Norte 5 Norte 0 -- -- 95
2019-02-14 02:00:00 4.3 0 Calma 5 Noroeste 0 -- -- 94
2019-02-14 01:00:00 4.6 0 Calma 5 Noroeste 0 -- -- 94
2019-02-14 00:00:00 5 0 Calma 4 Nordeste 0 -- -- 93
2019-02-13 23:00:00 5.9 0 Calma 4 Sur 0 -- -- 91
2019-02-13 22:00:00 6.7 0 Calma 4 Sudoeste 0 -- -- 86
2019-02-13 21:00:00 7.9 0 Calma 6 Nordeste 0 -- -- 84
2019-02-13 20:00:00 9.5 0 Calma 6 Noroeste 0 -- -- 77
2019-02-13 19:00:00 11.6 2 Sur 7 Este 0 -- -- 70
2019-02-13 18:00:00 15.7 4 Sudeste 8 Sudeste 0 -- -- 55
2019-02-13 17:00:00 18.6 4 Sudoeste 12 Sur 0 -- -- 53
2019-02-13 16:00:00 18.9 7 Sur 15 Sur 0 -- -- 39
2019-02-13 15:00:00 18 6 Sudeste 18 Este 0 -- -- 44
2019-02-13 14:00:00 16.8 8 Este 19 Este 0 -- -- 42
2019-02-13 13:00:00 14.1 3 Sudoeste 6 Sudoeste 0 -- -- 60
2019-02-13 12:00:00 9.7 0 Calma 4 Norte 0 -- -- 80
2019-02-13 11:00:00 5.3 0 Calma 3 Noroeste 0 -- -- 100
2019-02-13 10:00:00 2.6 0 Calma 2 Noroeste 0 -- -- 100
2019-02-13 09:00:00 1.1 0 Calma 3 Sur 0 -- -- 100
2019-02-13 08:00:00 1.2 0 Calma 2 Sudeste 0 -- -- 100
2019-02-13 07:00:00 1.5 0 Calma 8 Sudeste 0 -- -- 100
2019-02-13 06:00:00 1.6 4 Sudeste 5 Sudeste 0 -- -- 100
2019-02-13 05:00:00 1.8 0 Calma 6 Este 0 -- -- 100
2019-02-13 04:00:00 1.8 4 Este 6 Este 0 -- -- 99
2019-02-13 03:00:00 2 0 Calma 4 Sudeste 0 -- -- 99
2019-02-13 02:00:00 2.6 0 Calma 4 Sudeste 0 -- -- 97
2019-02-13 01:00:00 3.3 2 Sudeste 4 Sudeste 0 -- -- 98
2019-02-13 00:00:00 3.7 2 Sudeste 10 Sudeste 0 -- -- 96
2019-02-12 23:00:00 4.5 5 Sudeste 8 Sudeste 0 -- -- 96
2019-02-12 22:00:00 5.3 5 Sudeste 7 Sudeste 0 -- -- 95
2019-02-12 21:00:00 6.2 6 Sudeste 8 Sudeste 0 -- -- 92
2019-02-12 20:00:00 6.9 3 Sudeste 7 Este 0 -- -- 90
2019-02-12 19:00:00 8.5 3 Sudeste 7 Sudeste 0 -- -- 85
2019-02-12 18:00:00 11.4 3 Sur 16 Norte 0 -- -- 74
2019-02-12 17:00:00 12.5 10 Norte 23 Norte 0 -- -- 65
2019-02-12 16:00:00 13 12 Norte 18 Nordeste 0 -- -- 61
2019-02-12 15:00:00 13.6 6 Sur 15 Sudeste 0 -- -- 55
2019-02-12 14:00:00 12.9 9 Sur 18 Sudeste 0 -- -- 60
2019-02-12 13:00:00 12.1 10 Sur 20 Sudeste 0 -- -- 69
2019-02-12 12:00:00 9.2 6 Este 11 Este 0 -- -- 85
2019-02-12 11:00:00 6.6 4 Este 13 Este 0 -- -- 98
2019-02-12 10:00:00 5.5 4 Sudeste 13 Sudeste 0 -- -- 100
2019-02-12 09:00:00 5.1 5 Sudeste 17 Sudeste 0 -- -- 100
2019-02-12 08:00:00 5.4 7 Sudeste 13 Sudeste 0 -- -- 100
2019-02-12 07:00:00 5.5 3 Sudeste 8 Sur 0 -- -- 100
2019-02-12 06:00:00 5.5 0 Calma 6 Sur 0 -- -- 100
2019-02-12 05:00:00 5.8 3 Sudoeste 6 Sur 0 -- -- 100
2019-02-12 04:00:00 6.2 0 Calma 4 Sudoeste 0 -- -- 100
2019-02-12 03:00:00 6.3 0 Calma 4 Sur 0 -- -- 100
2019-02-12 02:00:00 6.3 2 Sur 4 Sudoeste 0 -- -- 100
2019-02-12 01:00:00 6.4 0 Calma 4 Sudoeste 0 -- -- 100
2019-02-12 00:00:00 6.3 0 Calma 3 Sur 0 -- -- 100
2019-02-11 23:00:00 6.4 0 Calma 5 Este 0 -- -- 100
2019-02-11 22:00:00 6.7 0 Calma 4 Sur 0 -- -- 99
2019-02-11 21:00:00 6.8 0 Calma 4 Este 0 -- -- 98
2019-02-11 20:00:00 7.4 0 Calma 2 Oeste 0 -- -- 97
2019-02-11 19:00:00 8.2 0 Calma 4 Sudoeste 0 -- -- 97
2019-02-11 18:00:00 8.5 3 Sudoeste 9 Norte 0.6 -- -- 95
2019-02-11 17:00:00 9 4 Norte 13 Nordeste 2.2 -- -- 93
2019-02-11 16:00:00 9.4 3 Sudoeste 13 Oeste 0.4 -- -- 91
2019-02-11 15:00:00 9 8 Oeste 20 Sudoeste 0.8 -- -- 92
2019-02-11 14:00:00 9.1 6 Oeste 17 Oeste 0.2 -- -- 90
2019-02-11 13:00:00 8.8 11 Oeste 19 Noroeste 0 -- -- 89
2019-02-11 12:00:00 8.2 4 Noroeste 13 Oeste 0.6 -- -- 96
2019-02-11 11:00:00 7.8 5 Noroeste 14 Norte 0.4 -- -- 97
2019-02-11 10:00:00 7.1 8 Norte 13 Oeste 0 -- -- 97
2019-02-11 09:00:00 6.5 3 Noroeste 9 Noroeste 0 -- -- 99
2019-02-11 08:00:00 6.5 2 Noroeste 10 Noroeste 0 -- -- 98
2019-02-11 07:00:00 6.6 6 Noroeste 11 Norte 0.4 -- -- 98
2019-02-11 06:00:00 6.5 5 Noroeste 8 Noroeste 0 -- -- 97
2019-02-11 05:00:00 6.8 3 Sudoeste 9 Este 0.2 -- -- 95
2019-02-11 04:00:00 7.1 3 Este 24 Noroeste 0.2 -- -- 94
2019-02-11 03:00:00 7.4 6 Oeste 14 Norte 0.4 -- -- 91
2019-02-11 02:00:00 6.9 2 Noroeste 10 Oeste 0 -- -- 90
2019-02-11 01:00:00 7.4 5 Noroeste 10 Noroeste 0 -- -- 88
2019-02-11 00:00:00 7.1 4 Noroeste 7 Noroeste 0 -- -- 91
2019-02-10 23:00:00 7.8 4 Oeste 13 Oeste 0 -- -- 85
2019-02-10 22:00:00 8.5 3 Oeste 10 Oeste 0 -- -- 86
2019-02-10 21:00:00 8.9 3 Sudoeste 7 Oeste 0 -- -- 83
2019-02-10 20:00:00 9.3 6 Oeste 14 Oeste 0 -- -- 81
2019-02-10 19:00:00 9.3 9 Oeste 15 Noroeste 0 -- -- 80
2019-02-10 18:00:00 9.4 6 Oeste 21 Sudoeste 0 -- -- 84
2019-02-10 17:00:00 9.2 6 Oeste 26 Noroeste 0.2 -- -- 88
2019-02-10 16:00:00 9.1 8 Oeste 44 Noroeste 0.2 -- -- 90
2019-02-10 15:00:00 9.6 26 Noroeste 52 Noroeste 0 -- -- 88
2019-02-10 14:00:00 10.3 10 Oeste 32 Oeste 0.8 -- -- 89
2019-02-10 13:00:00 9.9 0 Calma 11 Sur 1 -- -- 96
2019-02-10 12:00:00 9.8 4 Sudeste 24 Oeste 0.4 -- -- 93
2019-02-10 11:00:00 9.7 22 Noroeste 63 Noroeste 0.8 -- -- 91
2019-02-10 10:00:00 14.5 13 Oeste 60 Sur 0 -- -- 63
2019-02-10 09:00:00 14.2 23 Sudoeste 53 Sur 0.2 -- -- 61
2019-02-10 08:00:00 13.5 29 Sur 53 Sur 0.2 -- -- 64
2019-02-10 07:00:00 12.6 18 Sur 46 Sudoeste 1 -- -- 71
2019-02-10 06:00:00 14 6 Sudeste 46 Sudoeste 0 -- -- 57
2019-02-10 05:00:00 13.9 14 Sur 52 Sudoeste 0 -- -- 55
2019-02-10 04:00:00 13.4 7 Sur 42 Sudeste 0 -- -- 54
2019-02-10 03:00:00 13.8 8 Sudeste 27 Sur 0 -- -- 53
2019-02-10 02:00:00 13.8 11 Sudeste 42 Sur 0 -- -- 51
2019-02-10 01:00:00 14.5 9 Sudeste 35 Oeste 0 -- -- 50
2019-02-10 00:00:00 14.8 14 Sudoeste 36 Sur 0 -- -- 50
2019-02-09 23:00:00 15.1 7 Este 30 Sur 0 -- -- 50
2019-02-09 22:00:00 15.3 3 Sudeste 26 Sudoeste 0 -- -- 49
2019-02-09 21:00:00 15 7 Este 26 Sur 0 -- -- 52
2019-02-09 20:00:00 14.8 9 Sur 31 Sudoeste 0 -- -- 53
2019-02-09 19:00:00 13.5 3 Sur 10 Noroeste 0 -- -- 60
2019-02-09 18:00:00 14.5 8 Sudoeste 22 Sudoeste 0 -- -- 59
2019-02-09 17:00:00 15.4 17 Sudoeste 24 Sudoeste 0 -- -- 53
2019-02-09 16:00:00 16.5 10 Sur 25 Sudoeste 0 -- -- 51
2019-02-09 15:00:00 16.9 10 Sur 29 Oeste 0 -- -- 52
2019-02-09 14:00:00 17 4 Oeste 23 Sudoeste 0 -- -- 53
2019-02-09 13:00:00 15.9 7 Sur 21 Sudeste 0 -- -- 57
2019-02-09 12:00:00 12.2 4 Sudeste 9 Este 0 -- -- 73
2019-02-09 11:00:00 7.6 2 Sudoeste 6 Este 0 -- -- 97
2019-02-09 10:00:00 4.9 4 Este 7 Sudoeste 0 -- -- 100
2019-02-09 09:00:00 3.2 0 Calma 4 Este 0 -- -- 100
2019-02-09 08:00:00 3.2 0 Calma 3 Sur 0 -- -- 100
2019-02-09 07:00:00 3.3 0 Calma 7 Este 0 -- -- 99
2019-02-09 06:00:00 3.8 3 Nordeste 6 Sudeste 0 -- -- 99
2019-02-09 05:00:00 4.2 0 Calma 6 Sur 0 -- -- 99
2019-02-09 04:00:00 4.4 2 Este 7 Sudeste 0 -- -- 99
2019-02-09 03:00:00 4.6 2 Noroeste 5 Nordeste 0 -- -- 98
2019-02-09 02:00:00 4.7 2 Oeste 5 Sudeste 0 -- -- 97
2019-02-09 01:00:00 5.4 0 Calma 5 Este 0 -- -- 97
2019-02-09 00:00:00 5.8 2 Sudeste 6 Este 0 -- -- 96
2019-02-08 23:00:00 7 0 Calma 5 Nordeste 0 -- -- 95
2019-02-08 22:00:00 7.6 3 Sudeste 6 Sur 0 -- -- 93
2019-02-08 21:00:00 8 2 Norte 11 Sudeste 0 -- -- 91
2019-02-08 20:00:00 8.3 6 Sur 8 Sudeste 0 -- -- 90
2019-02-08 19:00:00 10.2 2 Sudeste 12 Noroeste 0 -- -- 84
2019-02-08 18:00:00 11.6 12 Noroeste 31 Noroeste 0 -- -- 76
2019-02-08 17:00:00 15.2 18 Noroeste 25 Noroeste 0 -- -- 65
2019-02-08 16:00:00 17.3 17 Oeste 29 Oeste 0 -- -- 46
2019-02-08 15:00:00 17.5 6 Oeste 15 Oeste 0 -- -- 51
2019-02-08 14:00:00 16.1 7 Este 18 Este 0 -- -- 53
2019-02-08 13:00:00 15.4 6 Sudeste 19 Este 0 -- -- 56
2019-02-08 12:00:00 12.9 5 Sur 14 Este 0 -- -- 69
2019-02-08 11:00:00 8.6 3 Noroeste 8 Noroeste 0 -- -- 90
2019-02-08 10:00:00 4.4 3 Noroeste 6 Noroeste 0 -- -- 100
2019-02-08 09:00:00 2.4 2 Norte 8 Noroeste 0 -- -- 100
2019-02-08 08:00:00 1.8 0 Calma 8 Sur 0 -- -- 100
2019-02-08 07:00:00 1.9 2 Este 7 Norte 0 -- -- 100
2019-02-08 06:00:00 1.8 0 Calma 6 Este 0 -- -- 100
2019-02-08 05:00:00 2.1 0 Calma 4 Noroeste 0 -- -- 100
2019-02-08 04:00:00 2.3 3 Norte 5 Norte 0 -- -- 100
2019-02-08 03:00:00 2.9 3 Sudeste 5 Sudeste 0 -- -- 100
2019-02-08 02:00:00 3.4 3 Este 8 Sudeste 0 -- -- 99
2019-02-08 01:00:00 3.9 4 Sudeste 8 Sudeste 0 -- -- 99
2019-02-08 00:00:00 4.1 0 Calma 7 Sudeste 0 -- -- 98
2019-02-07 23:00:00 4.7 4 Sudeste 9 Sudeste 0 -- -- 98
2019-02-07 22:00:00 5.2 5 Sudeste 9 Sudeste 0 -- -- 98
2019-02-07 21:00:00 5.9 5 Sudeste 9 Sudeste 0 -- -- 96
2019-02-07 20:00:00 7 4 Sudeste 7 Sudeste 0 -- -- 93
2019-02-07 19:00:00 8.8 3 Sudeste 5 Este 0 -- -- 88
2019-02-07 18:00:00 10.6 0 Calma 5 Este 0 -- -- 84
2019-02-07 17:00:00 10.9 3 Sudeste 9 Sudeste 0 -- -- 81
2019-02-07 16:00:00 10.6 0 Calma 10 Sudoeste 0 -- -- 80
2019-02-07 15:00:00 10.1 4 Sudoeste 29 Noroeste 0 -- -- 84
2019-02-07 14:00:00 10.6 13 Oeste 21 Oeste 0 -- -- 80
2019-02-07 13:00:00 10.1 2 Este 6 Oeste 0 -- -- 93
2019-02-07 12:00:00 9 2 Norte 6 Noroeste 0.4 -- -- 98
2019-02-07 11:00:00 8.2 3 Norte 5 Noroeste 0 -- -- 99
2019-02-07 10:00:00 7.2 3 Sudeste 6 Este 0 -- -- 100
2019-02-07 09:00:00 6.4 0 Calma 5 Sudeste 0 -- -- 100
2019-02-07 08:00:00 6.1 0 Calma 4 Sudeste 0 -- -- 100
2019-02-07 07:00:00 5.8 2 Norte 6 Noroeste 0 -- -- 100
2019-02-07 06:00:00 5.4 0 Calma 8 Sudeste 0 -- -- 99
2019-02-07 05:00:00 6.2 2 Sur 9 Sudeste 0 -- -- 98
2019-02-07 04:00:00 6.8 4 Sur 8 Sudeste 0 -- -- 97
2019-02-07 03:00:00 7.2 4 Sur 12 Este 0 -- -- 97
2019-02-07 02:00:00 7.1 4 Sudeste 6 Este 0 -- -- 98
2019-02-07 01:00:00 7 0 Calma 3 Norte 0 -- -- 98
2019-02-07 00:00:00 7.5 0 Calma 3 Oeste 0 -- -- 96
2019-02-06 23:00:00 7.7 0 Calma 7 Noroeste 0 -- -- 96
2019-02-06 22:00:00 8.1 2 Noroeste 4 Noroeste 0 -- -- 92
2019-02-06 21:00:00 9.4 0 Calma 5 Este 0 -- -- 89
2019-02-06 20:00:00 11.3 3 Sudeste 9 Noroeste 0 -- -- 82
2019-02-06 19:00:00 13.4 8 Noroeste 17 Noroeste 0 -- -- 75
2019-02-06 18:00:00 15.7 3 Sudoeste 12 Este 0 -- -- 68
2019-02-06 17:00:00 18.7 6 Sudeste 13 Sur 0 -- -- 54
2019-02-06 16:00:00 18.4 2 Sur 8 Sudeste 0 -- -- 56
2019-02-06 15:00:00 18.8 4 Oeste 9 Oeste 0 -- -- 56
2019-02-06 14:00:00 16.8 2 Oeste 10 Sur 0 -- -- 64
2019-02-06 13:00:00 15.7 6 Sur 13 Sur 0 -- -- 69
2019-02-06 12:00:00 11.5 4 Sudeste 9 Sur 0.2 -- -- 97
2019-02-06 11:00:00 7.5 2 Sudoeste 4 Sudoeste 0 -- -- 100
2019-02-06 10:00:00 5.6 0 Calma 2 Sur 0 -- -- 100
2019-02-06 09:00:00 4.6 0 Calma 2 Sudeste 0 -- -- 100
2019-02-06 08:00:00 4.4 0 Calma 3 Norte 0 -- -- 100
2019-02-06 07:00:00 4.2 0 Calma 4 Este 0 -- -- 100
2019-02-06 06:00:00 5 0 Calma 3 Sudeste 0 -- -- 100
2019-02-06 05:00:00 4.9 2 Norte 4 Noroeste 0 -- -- 100
2019-02-06 04:00:00 5.3 0 Calma 4 Norte 0 -- -- 99
2019-02-06 03:00:00 6.4 2 Sudeste 6 Sudeste 0 -- -- 99
2019-02-06 02:00:00 6.5 0 Calma 3 Sudeste 0 -- -- 98
2019-02-06 01:00:00 7.4 0 Calma 3 Este 0 -- -- 97
2019-02-06 00:00:00 8.4 0 Calma 3 Noroeste 0 -- -- 94
2019-02-05 23:00:00 9.7 0 Calma 5 Sudeste 0 -- -- 92
2019-02-05 22:00:00 10.7 3 Sudeste 5 Este 0 -- -- 92
2019-02-05 21:00:00 11.4 0 Calma 3 Este 0 -- -- 89
2019-02-05 20:00:00 12 2 Sudeste 4 Noroeste 0 -- -- 87
2019-02-05 19:00:00 12.8 3 Oeste 12 Norte 0 -- -- 81
2019-02-05 18:00:00 13.7 9 Noroeste 16 Noroeste 0 -- -- 76
2019-02-05 17:00:00 14.4 9 Norte 15 Noroeste 0 -- -- 71
2019-02-05 16:00:00 14.7 6 Norte 15 Noroeste 0 -- -- 71
2019-02-05 15:00:00 15.7 6 Oeste 17 Sudoeste 0 -- -- 70
2019-02-05 14:00:00 14.9 8 Noroeste 17 Oeste 0 -- -- 72
2019-02-05 13:00:00 13.3 0 Calma 6 Sur 0 -- -- 83
2019-02-05 12:00:00 11 0 Calma 4 Sudoeste 0 -- -- 93
2019-02-05 11:00:00 8.9 0 Calma 6 Noroeste 0 -- -- 100
2019-02-05 10:00:00 7.9 2 Norte 5 Norte 0 -- -- 100
2019-02-05 09:00:00 7.2 0 Calma 3 Este 0 -- -- 100
2019-02-05 08:00:00 7.1 2 Sur 3 Sur 0 -- -- 100
2019-02-05 07:00:00 7 0 Calma 4 Sur 0 -- -- 100
2019-02-05 06:00:00 6.9 0 Calma 3 Sur 0 -- -- 100
2019-02-05 05:00:00 6.8 0 Calma 5 Norte 0 -- -- 100
2019-02-05 04:00:00 6.8 0 Calma 5 Noroeste 0 -- -- 100
2019-02-05 03:00:00 7 2 Norte 4 Norte 0 -- -- 100
2019-02-05 02:00:00 7 0 Calma 2 Sur 0 -- -- 99
2019-02-05 01:00:00 7 0 Calma 7 Norte 0.8 -- -- 99
2019-02-05 00:00:00 7.2 4 Norte 8 Norte 0.2 -- -- 96
2019-02-04 23:00:00 7.8 0 Calma 4 Nordeste 0.2 -- -- 93
2019-02-04 22:00:00 8.1 0 Calma 5 Sudeste 0 -- -- 92
2019-02-04 21:00:00 8.4 2 Nordeste 6 Este 0 -- -- 86
2019-02-04 20:00:00 8.7 4 Este 8 Sudeste 0 -- -- 87
2019-02-04 19:00:00 8.9 3 Norte 9 Norte 0 -- -- 83
2019-02-04 18:00:00 9.7 5 Norte 9 Norte 0 -- -- 73
2019-02-04 17:00:00 10.3 5 Norte 9 Norte 0 -- -- 70
2019-02-04 16:00:00 10.6 0 Calma 4 Noroeste 0 -- -- 72
2019-02-04 15:00:00 10.2 2 Norte 8 Sudoeste 0 -- -- 71
2019-02-04 14:00:00 9.8 0 Calma 5 Sur 0 -- -- 74
2019-02-04 13:00:00 8.3 0 Calma 9 Oeste 0 -- -- 75
2019-02-04 12:00:00 6.5 4 Nordeste 8 Nordeste 0 -- -- 84
2019-02-04 11:00:00 3.4 2 Sur 4 Sudeste 0 -- -- 100
2019-02-04 10:00:00 1.5 0 Calma 5 Sur 0 -- -- 100
2019-02-04 09:00:00 0.3 2 Sudeste 5 Este 0 -- -- 100
2019-02-04 08:00:00 0.3 0 Calma 6 Sudeste 0 -- -- 100
2019-02-04 07:00:00 0.8 3 Sudeste 9 Sur 0 -- -- 100
2019-02-04 06:00:00 1.5 3 Sur 15 Este 0 -- -- 100
2019-02-04 05:00:00 1.8 5 Sudeste 13 Sudeste 0 -- -- 100
2019-02-04 04:00:00 2 4 Sudeste 14 Sudeste 0 -- -- 100
2019-02-04 03:00:00 2.2 4 Sudeste 10 Este 0 -- -- 100
2019-02-04 02:00:00 2.6 3 Sudeste 8 Este 0 -- -- 100
2019-02-04 01:00:00 2.4 3 Sudeste 4 Este 0 -- -- 100
2019-02-04 00:00:00 2.5 2 Sur 5 Este 0 -- -- 99
2019-02-03 23:00:00 3.2 2 Nordeste 6 Sudeste 0 -- -- 99
2019-02-03 22:00:00 3.7 4 Sur 10 Este 0.2 -- -- 99
2019-02-03 21:00:00 3.4 0 Calma 4 Este 0 -- -- 98
2019-02-03 20:00:00 3.8 0 Calma 7 Este 0 -- -- 96
2019-02-03 19:00:00 4.9 3 Sudeste 10 Este 0 -- -- 94
2019-02-03 18:00:00 5.6 8 Este 16 Este 0 -- -- 91
2019-02-03 17:00:00 6.4 5 Norte 25 Oeste 0.4 -- -- 89
2019-02-03 16:00:00 8.1 18 Oeste 31 Oeste 0.2 -- -- 81
2019-02-03 15:00:00 6.2 12 Oeste 30 Oeste 0 -- -- 86
2019-02-03 14:00:00 6.1 23 Oeste 34 Oeste 0 -- -- 86
2019-02-03 13:00:00 6 8 Oeste 27 Noroeste 1.4 -- -- 87
2019-02-03 12:00:00 5.8 3 Sudoeste 15 Norte 0 -- -- 87
2019-02-03 11:00:00 4.1 0 Calma 10 Nordeste 0 -- -- 98
2019-02-03 10:00:00 3.4 3 Sudeste 13 Oeste 1 -- -- 97
2019-02-03 09:00:00 1.7 3 Noroeste 6 Oeste 0.2 -- -- 99
2019-02-03 08:00:00 1.6 2 Noroeste 8 Noroeste 0.4 -- -- 98
2019-02-03 07:00:00 1.9 5 Sur 12 Nordeste 2 -- -- 96
2019-02-03 06:00:00 2.9 3 Sur 20 Norte 0.6 -- -- 91
2019-02-03 05:00:00 3.5 4 Noroeste 20 Noroeste 0 -- -- 82
2019-02-03 04:00:00 5.6 11 Noroeste 31 Noroeste 0.4 -- -- 70
2019-02-03 03:00:00 2.1 3 Sudoeste 8 Este 0 -- -- 98
2019-02-03 02:00:00 2.4 0 Calma 5 Noroeste 0 -- -- 96
2019-02-03 01:00:00 3.4 3 Sudeste 17 Nordeste 0.4 -- -- 92
2019-02-03 00:00:00 3.6 7 Noroeste 16 Noroeste 1 -- -- 93
2019-02-02 23:00:00 3.9 4 Oeste 31 Norte 0.8 -- -- 88
2019-02-02 22:00:00 4 13 Noroeste 32 Oeste 1.6 -- -- 90
2019-02-02 21:00:00 3.6 10 Noroeste 27 Oeste 2.2 -- -- 90
2019-02-02 20:00:00 5 15 Oeste 27 Noroeste 0.2 -- -- 83
2019-02-02 19:00:00 6.4 18 Noroeste 33 Noroeste 0.6 -- -- 78
2019-02-02 18:00:00 4.7 4 Noroeste 11 Norte 0 -- -- 92
2019-02-02 17:00:00 5.1 8 Noroeste 30 Sudoeste 1.2 -- -- 88
2019-02-02 16:00:00 5.1 9 Oeste 28 Oeste 0.2 -- -- 87
2019-02-02 15:00:00 4.7 22 Noroeste 62 Noroeste 1.2 -- -- 88
2019-02-02 14:00:00 8.6 23 Norte 56 Noroeste 0 -- -- 54
2019-02-02 13:00:00 8.3 30 Noroeste 60 Noroeste 0 -- -- 57
2019-02-02 12:00:00 7.7 33 Noroeste 60 Noroeste 0 -- -- 63
2019-02-02 11:00:00 5.7 31 Noroeste 69 Noroeste 3 -- -- 84
2019-02-02 10:00:00 6.5 25 Noroeste 44 Noroeste 0 -- -- 80
2019-02-02 09:00:00 5.3 20 Noroeste 57 Noroeste 3 -- -- 93
2019-02-02 08:00:00 5.3 28 Noroeste 61 Oeste 3 -- -- 92
2019-02-02 07:00:00 5.9 27 Oeste 56 Oeste 3 -- -- 90
2019-02-02 06:00:00 6.7 21 Noroeste 39 Noroeste 3.6 -- -- 95
2019-02-02 05:00:00 5.6 16 Noroeste 35 Oeste 5.6 -- -- 99
2019-02-02 04:00:00 5.5 14 Noroeste 33 Oeste 1.2 -- -- 88
2019-02-02 03:00:00 5.8 15 Oeste 26 Oeste 0.2 -- -- 88
2019-02-02 02:00:00 6 6 Noroeste 22 Noroeste 0.6 -- -- 90
2019-02-02 01:00:00 5.6 8 Norte 15 Noroeste 0 -- -- 91
2019-02-02 00:00:00 6 7 Oeste 23 Oeste 0.2 -- -- 85
2019-02-01 23:00:00 5.2 5 Oeste 17 Noroeste 0.8 -- -- 96
2019-02-01 22:00:00 4.9 0 Calma 5 Sur 0 -- -- 98
2019-02-01 21:00:00 4.9 0 Calma 10 Noroeste 0 -- -- 97
2019-02-01 20:00:00 4.8 0 Calma 14 Este 0 -- -- 95
2019-02-01 19:00:00 5.6 5 Sudeste 14 Este 0 -- -- 91
2019-02-01 18:00:00 6.5 6 Este 24 Sur 0.6 -- -- 85
2019-02-01 17:00:00 6.3 18 Noroeste 43 Noroeste 1.4 -- -- 89
2019-02-01 16:00:00 8.2 8 Sur 34 Sudoeste 0.8 -- -- 78
2019-02-01 15:00:00 10.1 17 Sudoeste 47 Sudoeste 0 -- -- 65
2019-02-01 14:00:00 11.5 15 Sur 42 Sur 0 -- -- 58
2019-02-01 13:00:00 11.7 13 Sur 32 Sudeste 0 -- -- 55
2019-02-01 12:00:00 11.2 8 Sudoeste 35 Oeste 0 -- -- 57
2019-02-01 11:00:00 11.3 16 Sudoeste 45 Sudoeste 0 -- -- 58
2019-02-01 10:00:00 10.8 26 Sur 53 Sur 0 -- -- 56
2019-02-01 09:00:00 10.8 31 Sur 56 Sur 0 -- -- 55
2019-02-01 08:00:00 10.5 11 Sur 30 Sur 0 -- -- 65
2019-02-01 07:00:00 10.4 12 Sudoeste 44 Sur 0 -- -- 65
2019-02-01 06:00:00 7.3 12 Sudeste 38 Sur 0 -- -- 100
2019-02-01 05:00:00 7.7 5 Sudeste 8 Sudeste 0 -- -- 99
2019-02-01 04:00:00 8.6 2 Sudeste 10 Este 0 -- -- 100
2019-02-01 03:00:00 8.7 3 Sudeste 12 Este 0 -- -- 100
2019-02-01 02:00:00 9 3 Sur 10 Este 0 -- -- 100
2019-02-01 01:00:00 9.1 3 Sudeste 9 Sudeste 0 -- -- 100
2019-02-01 00:00:00 9.3 3 Sudeste 12 Este 0 -- -- 100
2019-01-31 23:00:00 9.4 4 Sudeste 13 Este 0 -- -- 100
2019-01-31 22:00:00 9.5 5 Sudeste 12 Este 2.8 -- -- 100
2019-01-31 21:00:00 9.8 3 Sudeste 7 Noroeste 3.6 -- -- 99
2019-01-31 20:00:00 9.9 4 Norte 15 Noroeste 7.8 -- -- 99
2019-01-31 19:00:00 10.2 6 Noroeste 41 Oeste 10.2 -- -- 97
2019-01-31 18:00:00 12.3 22 Oeste 41 Oeste 5 -- -- 94
2019-01-31 17:00:00 15.5 0 Calma 29 Oeste 0.2 -- -- 84
2019-01-31 16:00:00 17.4 12 Sudoeste 32 Sudoeste 0 -- -- 65
2019-01-31 15:00:00 17.2 19 Sudoeste 39 Sudoeste 0 -- -- 65
2019-01-31 14:00:00 16.7 16 Sudoeste 39 Sur 0 -- -- 68
2019-01-31 13:00:00 16 16 Sudoeste 35 Sudoeste 0 -- -- 69
2019-01-31 12:00:00 13.9 10 Sudoeste 37 Sur 0 -- -- 80
2019-01-31 11:00:00 11.7 9 Este 15 Este 0 -- -- 95
2019-01-31 10:00:00 10.3 4 Nordeste 19 Este 1 -- -- 99
2019-01-31 09:00:00 9.9 8 Este 19 Este 1.2 -- -- 100
2019-01-31 08:00:00 8.9 3 Este 11 Este 1.8 -- -- 100
2019-01-31 07:00:00 8.6 0 Calma 8 Este 3.2 -- -- 100
2019-01-31 06:00:00 8.3 3 Este 10 Este 2.4 -- -- 99
2019-01-31 05:00:00 8.4 2 Sudoeste 20 Este 2.4 -- -- 97
2019-01-31 04:00:00 7.8 3 Noroeste 7 Este 1.4 -- -- 98
2019-01-31 03:00:00 7.9 2 Este 13 Sudeste 1.6 -- -- 94
2019-01-31 02:00:00 7.9 5 Sudeste 20 Este 1.4 -- -- 92
2019-01-31 01:00:00 7.6 5 Sudeste 23 Este 1.4 -- -- 93
2019-01-31 00:00:00 7.2 7 Este 22 Este 2.6 -- -- 95
2019-01-30 23:00:00 7.1 3 Sur 9 Sudeste 4.4 -- -- 97
2019-01-30 22:00:00 7.4 2 Este 12 Sudeste 2 -- -- 94
2019-01-30 21:00:00 7.9 4 Sudeste 23 Sur 0.6 -- -- 89
2019-01-30 20:00:00 9.2 6 Sur 28 Sudoeste 0.4 -- -- 75
2019-01-30 19:00:00 8.9 4 Sur 13 Oeste 0 -- -- 68
2019-01-30 18:00:00 9.5 3 Sudeste 10 Este 0 -- -- 73
2019-01-30 17:00:00 11 4 Sudeste 14 Este 0 -- -- 63
2019-01-30 16:00:00 11.3 4 Sudeste 10 Sur 0 -- -- 55
2019-01-30 15:00:00 10.6 3 Noroeste 13 Sudoeste 0 -- -- 61
2019-01-30 14:00:00 10.8 9 Oeste 23 Sudoeste 0 -- -- 61
2019-01-30 13:00:00 10 7 Sudoeste 22 Sudoeste 0 -- -- 64
2019-01-30 12:00:00 8.1 4 Este 10 Sudoeste 0 -- -- 83
2019-01-30 11:00:00 6 4 Este 13 Noroeste 0.2 -- -- 96
2019-01-30 10:00:00 5.6 6 Noroeste 14 Oeste 1 -- -- 95
2019-01-30 09:00:00 5.6 3 Sudoeste 19 Oeste 1.8 -- -- 91
2019-01-30 08:00:00 5.8 8 Oeste 23 Noroeste 1.4 -- -- 90
2019-01-30 07:00:00 6.1 8 Oeste 18 Noroeste 1.4 -- -- 89
2019-01-30 06:00:00 5.6 3 Noroeste 28 Oeste 2.4 -- -- 92
2019-01-30 05:00:00 6.3 8 Oeste 17 Oeste 0.2 -- -- 84
2019-01-30 04:00:00 6.1 6 Noroeste 27 Oeste 0.4 -- -- 88
2019-01-30 03:00:00 6.1 11 Noroeste 29 Noroeste 0.2 -- -- 86
2019-01-30 02:00:00 6 14 Oeste 43 Oeste 0.8 -- -- 91
2019-01-30 01:00:00 6.6 17 Oeste 37 Oeste 0 -- -- 87
2019-01-30 00:00:00 6 15 Noroeste 40 Oeste 0.8 -- -- 92
2019-01-29 23:00:00 5.8 21 Oeste 54 Noroeste 1.4 -- -- 90
2019-01-29 22:00:00 6.3 17 Noroeste 67 Noroeste 2.2 -- -- 89
2019-01-29 21:00:00 8.1 23 Noroeste 40 Oeste 0 -- -- 81
2019-01-29 20:00:00 7.2 23 Oeste 69 Oeste 0.8 -- -- 89
2019-01-29 19:00:00 8.3 27 Noroeste 61 Noroeste 0.2 -- -- 85
2019-01-29 18:00:00 8.5 26 Oeste 55 Oeste 0.6 -- -- 87
2019-01-29 17:00:00 9.7 33 Oeste 58 Oeste 0.4 -- -- 80
2019-01-29 16:00:00 9.5 36 Oeste 68 Noroeste 2.6 -- -- 89
2019-01-29 15:00:00 9.4 7 Oeste 31 Sudoeste 2 -- -- 88
2019-01-29 14:00:00 9.8 10 Sur 24 Sudeste 0.8 -- -- 79
2019-01-29 13:00:00 8.5 5 Sudeste 18 Sudeste 0.8 -- -- 91
2019-01-29 12:00:00 8.3 0 Calma 15 Este 0 -- -- 87
2019-01-29 11:00:00 7.7 4 Sudeste 13 Nordeste 0.2 -- -- 97
2019-01-29 10:00:00 6.8 3 Sur 12 Sudeste 0.4 -- -- 100
2019-01-29 09:00:00 6.4 0 Calma 5 Sudeste 0.8 -- -- 100
2019-01-29 08:00:00 6.5 0 Calma 12 Este 0 -- -- 100
2019-01-29 07:00:00 6.4 2 Sur 6 Sur 0 -- -- 100
2019-01-29 06:00:00 6.6 0 Calma 4 Sudeste 0 -- -- 99
2019-01-29 05:00:00 6.9 2 Sudeste 6 Norte 0.2 -- -- 99
2019-01-29 04:00:00 7.2 4 Noroeste 14 Sudoeste 0.8 -- -- 97
2019-01-29 03:00:00 7.4 6 Noroeste 12 Noroeste 0.8 -- -- 98
2019-01-29 02:00:00 7.3 4 Oeste 17 Sudoeste 1.6 -- -- 99
2019-01-29 01:00:00 7.1 5 Norte 12 Noroeste 0.4 -- -- 98
2019-01-29 00:00:00 7.4 7 Oeste 24 Oeste 0.8 -- -- 96
2019-01-28 23:00:00 8 14 Oeste 29 Sudoeste 0.6 -- -- 91
2019-01-28 22:00:00 8.2 9 Oeste 26 Oeste 0.6 -- -- 88
2019-01-28 21:00:00 8.2 8 Noroeste 33 Oeste 1.4 -- -- 95
2019-01-28 20:00:00 8.7 15 Oeste 38 Noroeste 0.2 -- -- 89
2019-01-28 19:00:00 9.1 20 Noroeste 40 Oeste 0.6 -- -- 87
2019-01-28 18:00:00 9.2 20 Oeste 45 Noroeste 0 -- -- 85
2019-01-28 17:00:00 8.9 27 Oeste 52 Noroeste 0.6 -- -- 90
2019-01-28 16:00:00 10.5 26 Noroeste 49 Oeste 0 -- -- 80
2019-01-28 15:00:00 9 23 Noroeste 58 Noroeste 1.4 -- -- 94
2019-01-28 14:00:00 10.1 24 Noroeste 59 Noroeste 0.8 -- -- 84
2019-01-28 13:00:00 8.8 26 Noroeste 62 Noroeste 1.2 -- -- 93
2019-01-28 12:00:00 9.4 31 Noroeste 59 Oeste 0.4 -- -- 86
2019-01-28 11:00:00 9.7 25 Oeste 54 Oeste 1.2 -- -- 92
2019-01-28 10:00:00 9.1 22 Oeste 50 Noroeste 1.4 -- -- 94
2019-01-28 09:00:00 8.8 28 Noroeste 57 Oeste 2.8 -- -- 96
2019-01-28 08:00:00 9.7 24 Noroeste 63 Oeste 1.4 -- -- 92
2019-01-28 07:00:00 10.3 27 Oeste 48 Noroeste 0.2 -- -- 81
2019-01-28 06:00:00 9.9 29 Oeste 54 Oeste 0 -- -- 84
2019-01-28 05:00:00 9.2 31 Oeste 55 Oeste 0.8 -- -- 89
2019-01-28 04:00:00 6.8 4 Noroeste 16 Norte 0.4 -- -- 96
2019-01-28 03:00:00 6.8 4 Nordeste 15 Noroeste 0 -- -- 92
2019-01-28 02:00:00 7.2 9 Noroeste 25 Noroeste 0.2 -- -- 89
2019-01-28 01:00:00 7.3 17 Noroeste 39 Noroeste 0.2 -- -- 86
2019-01-28 00:00:00 7.1 16 Noroeste 30 Noroeste 0.8 -- -- 91
2019-01-27 23:00:00 7.1 19 Noroeste 38 Oeste 1 -- -- 94
2019-01-27 22:00:00 7 14 Noroeste 40 Oeste 1.6 -- -- 94
2019-01-27 21:00:00 7.4 18 Oeste 47 Oeste 0.8 -- -- 89
2019-01-27 20:00:00 7.1 10 Noroeste 56 Oeste 1.4 -- -- 93
2019-01-27 19:00:00 8.6 23 Noroeste 51 Oeste 0.2 -- -- 80
2019-01-27 18:00:00 9.2 20 Noroeste 49 Oeste 0 -- -- 70
2019-01-27 17:00:00 9.2 18 Noroeste 45 Noroeste 0 -- -- 77
2019-01-27 16:00:00 8.4 18 Oeste 57 Noroeste 0.2 -- -- 82
2019-01-27 15:00:00 8.8 23 Noroeste 49 Oeste 0.2 -- -- 81
2019-01-27 14:00:00 7.2 32 Noroeste 75 Noroeste 3.2 -- -- 89
2019-01-27 13:00:00 7.7 28 Oeste 86 Noroeste 0.8 -- -- 88
2019-01-27 12:00:00 7.7 19 Noroeste 64 Noroeste 1.4 -- -- 94
2019-01-27 11:00:00 8.5 19 Oeste 42 Noroeste 0.6 -- -- 84
2019-01-27 10:00:00 7.7 16 Oeste 65 Oeste 1.6 -- -- 83
2019-01-27 09:00:00 8.1 16 Noroeste 31 Oeste 0.6 -- -- 85
2019-01-27 08:00:00 7.8 13 Oeste 45 Oeste 0.4 -- -- 85
2019-01-27 07:00:00 8.3 24 Oeste 59 Noroeste 0.6 -- -- 82
2019-01-27 06:00:00 8.8 17 Oeste 45 Oeste 0.4 -- -- 90
2019-01-27 05:00:00 8 22 Noroeste 41 Oeste 0.4 -- -- 100
2019-01-27 04:00:00 5.4 8 Noroeste 16 Noroeste 0.6 -- -- 100
2019-01-27 03:00:00 5 0 Calma 12 Noroeste 0 -- -- 100
2019-01-27 02:00:00 4.4 3 Nordeste 8 Sudeste 0 -- -- 100
2019-01-27 01:00:00 4.1 5 Sudeste 8 Sudeste 0 -- -- 100
2019-01-27 00:00:00 4.6 0 Calma 9 Este 0 -- -- 100
2019-01-26 23:00:00 4.7 2 Sur 6 Este 0 -- -- 99
2019-01-26 22:00:00 5.5 3 Sudeste 6 Sudeste 0 -- -- 98
2019-01-26 21:00:00 6.1 0 Calma 7 Este 0 -- -- 97
2019-01-26 20:00:00 7.8 0 Calma 6 Oeste 0 -- -- 91
2019-01-26 19:00:00 9.3 8 Oeste 19 Norte 0 -- -- 87
2019-01-26 18:00:00 11.5 13 Noroeste 21 Noroeste 0 -- -- 78
2019-01-26 17:00:00 13.3 0 Calma 7 Sur 0 -- -- 80
2019-01-26 16:00:00 14.7 2 Oeste 9 Oeste 0 -- -- 69
2019-01-26 15:00:00 14.1 4 Oeste 10 Oeste 0 -- -- 73
2019-01-26 14:00:00 13.6 5 Sur 10 Sur 0 -- -- 74
2019-01-26 13:00:00 11.9 2 Sudoeste 6 Sudoeste 0 -- -- 87
2019-01-26 12:00:00 10.8 4 Sur 8 Sudeste 0 -- -- 93
2019-01-26 11:00:00 9.4 3 Este 8 Este 0 -- -- 100
2019-01-26 10:00:00 8.6 2 Sudeste 6 Sudeste 0 -- -- 100
2019-01-26 09:00:00 8.2 2 Sur 5 Sudeste 0 -- -- 100
2019-01-26 08:00:00 8.4 3 Sudeste 5 Sudeste 0 -- -- 100
2019-01-26 07:00:00 8.5 2 Sudeste 4 Sudeste 0 -- -- 100
2019-01-26 06:00:00 8.6 0 Calma 5 Noroeste 0 -- -- 100
2019-01-26 05:00:00 8.7 0 Calma 4 Nordeste 0.2 -- -- 100
2019-01-26 04:00:00 8.8 0 Calma 5 Norte 0.2 -- -- 100
2019-01-26 03:00:00 8.9 4 Norte 10 Norte 0.2 -- -- 100
2019-01-26 02:00:00 9 5 Noroeste 11 Noroeste 0.6 -- -- 100
2019-01-26 01:00:00 9.1 0 Calma 3 Oeste 1 -- -- 100
2019-01-26 00:00:00 9.2 3 Oeste 11 Oeste 0.8 -- -- 100
2019-01-25 23:00:00 9.3 8 Oeste 14 Oeste 1.8 -- -- 100
2019-01-25 22:00:00 9.3 12 Oeste 23 Oeste 1.8 -- -- 99
2019-01-25 21:00:00 9.5 11 Oeste 21 Oeste 2.8 -- -- 99
2019-01-25 20:00:00 9.5 11 Oeste 22 Oeste 1.6 -- -- 98
2019-01-25 19:00:00 9.7 12 Noroeste 31 Oeste 0.2 -- -- 96
2019-01-25 18:00:00 10.2 20 Oeste 31 Oeste 0.2 -- -- 93
2019-01-25 17:00:00 10.2 19 Noroeste 31 Oeste 0 -- -- 94
2019-01-25 16:00:00 10.2 20 Noroeste 41 Noroeste 0.2 -- -- 93
2019-01-25 15:00:00 11.1 15 Oeste 29 Oeste 0 -- -- 89
2019-01-25 14:00:00 10.6 17 Noroeste 33 Noroeste 0.4 -- -- 95
2019-01-25 13:00:00 10.2 14 Oeste 33 Oeste 0.2 -- -- 97
2019-01-25 12:00:00 9.9 15 Noroeste 34 Oeste 1.2 -- -- 99
2019-01-25 11:00:00 10 21 Oeste 32 Oeste 0.6 -- -- 97
2019-01-25 10:00:00 9.7 14 Noroeste 32 Noroeste 0.2 -- -- 97
2019-01-25 09:00:00 10 13 Noroeste 25 Noroeste 0.2 -- -- 96
2019-01-25 08:00:00 9.9 15 Noroeste 35 Noroeste 0.2 -- -- 98
2019-01-25 07:00:00 10.3 10 Noroeste 28 Oeste 0.2 -- -- 97
2019-01-25 06:00:00 9.8 12 Noroeste 30 Noroeste 0 -- -- 98
2019-01-25 05:00:00 10 13 Noroeste 28 Oeste 0 -- -- 98
2019-01-25 04:00:00 10 18 Noroeste 40 Noroeste 0.2 -- -- 100
2019-01-25 03:00:00 9.8 19 Noroeste 39 Noroeste 1.8 -- -- 100
2019-01-25 02:00:00 8.1 12 Noroeste 17 Oeste 0.6 -- -- 100
2019-01-25 01:00:00 7.3 4 Noroeste 7 Noroeste 0.4 -- -- 100
2019-01-25 00:00:00 7 0 Calma 3 Norte 0.2 -- -- 100
2019-01-24 23:00:00 6.9 0 Calma 5 Este 0.4 -- -- 100
2019-01-24 22:00:00 6.9 3 Este 4 Este 0.6 -- -- 100
2019-01-24 21:00:00 6.8 0 Calma 3 Este 0.4 -- -- 100
2019-01-24 20:00:00 6.8 0 Calma 2 Este 0.4 -- -- 100
2019-01-24 19:00:00 6.8 0 Calma 4 Este 0 -- -- 100
2019-01-24 18:00:00 6.8 3 Este 6 Este 0.8 -- -- 100
2019-01-24 17:00:00 7.1 0 Calma 5 Sudeste 0.6 -- -- 100
2019-01-24 16:00:00 7.1 0 Calma 3 Sur 0.6 -- -- 100
2019-01-24 15:00:00 6.9 0 Calma 4 Nordeste 0.8 -- -- 100
2019-01-24 14:00:00 6.7 2 Este 5 Este 1.6 -- -- 100
2019-01-24 13:00:00 6.5 5 Este 10 Este 2.2 -- -- 100
2019-01-24 12:00:00 6.7 2 Nordeste 6 Oeste 2.4 -- -- 100
2019-01-24 11:00:00 6.8 0 Calma 4 Sudoeste 2.6 -- -- 100
2019-01-24 10:00:00 6.7 3 Sudoeste 6 Sudoeste 1.6 -- -- 100
2019-01-24 09:00:00 6.7 2 Sudoeste 9 Oeste 1.8 -- -- 100
2019-01-24 08:00:00 6.8 2 Noroeste 6 Sudoeste 2.4 -- -- 100
2019-01-24 07:00:00 6.8 4 Oeste 12 Noroeste 2.4 -- -- 100
2019-01-24 06:00:00 6.7 6 Oeste 12 Oeste 2 -- -- 100
2019-01-24 05:00:00 6.8 6 Noroeste 17 Oeste 1 -- -- 99
2019-01-24 04:00:00 6.8 4 Oeste 13 Oeste 2.2 -- -- 99
2019-01-24 03:00:00 7 7 Oeste 33 Norte 1.4 -- -- 98
2019-01-24 02:00:00 7.2 13 Noroeste 28 Noroeste 2 -- -- 98
2019-01-24 01:00:00 7.3 16 Noroeste 31 Noroeste 2.2 -- -- 97
2019-01-24 00:00:00 7.8 16 Noroeste 32 Noroeste 2.2 -- -- 94